Tiempo atmosférico en la estación meteorológica de Cabacés, Tarragona (360 m.)



Fecha
DESCASC
Temp. máxima en grados centígrados (hora)
DESCASC
Temp. mínima en grados centígrados (hora)
DESCASC
Temp. media en grados centígrados
DESCASC
Racha de viento máxima en m/sg (hora)
DESCASC
Velocidad máxima media en intervalos de 10 minutos(hora)
DESCASC
Precipitaciones diarias en mm
DESCASC
Precipitaciones de 00:00 a 06:00 en mm
DESCASC
Precipitaciones de 06:00 a 12:00 en mm
DESCASC
Precipitaciones de 12:00 a 18:00 en mm
DESCASC
Precipitaciones de 18:00 a 24:00 en mm
DESCASC
16-11-2019 9.9 (15:50) 2.5 (00:00) 6.2 8.61 (19:50) 2.78 (19:50) 0 0 0 0 0
11-11-2019 13.5 (14:30) 2.6 (03:30) 8 8.89 (14:10) 2.78 (15:20) 0 0 0 0 0
15-11-2019 10.5 (12:20) 2.9 (00:00) 6.7 6.11 (12:10) 2.78 (22:30) 0 0 0 0 0
14-11-2019 12.1 (04:50) 3.2 (00:00) 7.7 7.78 (08:50) 3.61 (04:30) 2.4 0 2.4 0 0
10-11-2019 11.8 (13:30) 3.7 (00:00) 7.8 9.44 (14:10) 3.89 (13:10) 0.8 0.8 0 0 0
12-11-2019 15 (15:00) 4.5 (00:00) 9.8 9.72 (14:20) 3.89 (12:50) 0 0 0 0 0
08-11-2019 13.5 (13:40) 5.3 (07:00) 9.4 15 (13:50) 5.56 (16:40) 0 0 0 0 0
13-11-2019 13.7 (16:50) 6.1 (00:00) 9.9 5.83 (20:00) 2.22 (20:00) 8.4 0 8.4 0 0
07-11-2019 15.3 (13:30) 6.8 (00:00) 11.1 8.89 (14:50) 3.06 (15:10) 0 0 0 0 0
09-11-2019 14.6 (15:50) 7.4 (00:00) 11 8.61 (15:10) 3.06 (14:10) 0 0 0 0 0
24-10-2019 17.1 (17:30) 8.2 (00:00) 12.7 8.61 (16:50) 3.06 (15:10) 0 0 0 0 0
22-10-2019 13 (00:00) 8.8 (18:30) 10.9 8.89 (17:00) 4.17 (16:40) 127 0 9 101.2 16.8
06-11-2019 16 (15:50) 8.9 (00:00) 12.4 8.89 (13:10) 3.33 (11:10) 0 0 0 0 0
27-10-2019 23.5 (14:30) 9.2 (00:00) 16.3 5.83 (16:10) 2.22 (16:10) 0 0 0 0 0
21-10-2019 20.4 (16:40) 9.2 (00:00) 14.8 4.72 (14:10) 2.22 (10:00) 0 0 0 0 0
29-10-2019 21.6 (14:50) 9.3 (00:00) 15.5 4.72 (12:50) 2.78 (12:50) 0 0 0 0 0
05-11-2019 16.4 (15:00) 9.6 (00:00) 13 11.11 (12:30) 4.44 (14:00) 0.8 0.8 0 0 0
26-10-2019 24.1 (16:40) 9.7 (00:00) 16.9 4.72 (20:10) 2.22 (20:10) 0 0 0 0 0
23-10-2019 18.3 (16:50) 10 (00:00) 14.1 7.22 (08:10) 2.78 (18:10) 12.4 12.4 0 0 0
25-10-2019 22.3 (17:00) 10.4 (00:00) 16.3 5.56 (13:50) 2.22 (06:50) 0 0 0 0 0
20-10-2019 19.2 (08:50) 11 (00:00) 15.1 6.94 (05:00) 2.5 (05:50) 4.8 0 2.8 2 0
30-10-2019 22.6 (14:50) 11.4 (00:00) 17 5.56 (12:40) 2.22 (11:20) 0 0 0 0 0
18-10-2019 25.6 (17:20) 11.5 (00:00) 18.6 6.39 (13:00) 2.22 (14:30) 0 0 0 0 0
28-10-2019 19.2 (15:30) 11.8 (00:00) 15.5 4.17 (14:40) 1.67 (14:10) 0 0 0 0 0
01-11-2019 24.3 (14:50) 12.3 (00:00) 18.3 4.44 (14:40) 1.94 (13:20) 0.2 0 0 0 0.2
03-11-2019 17.6 (15:20) 12.5 (00:00) 15.1 14.72 (13:20) 5.28 (11:50) 3.2 1 2.2 0 0
19-10-2019 26 (15:10) 12.8 (00:00) 19.4 7.22 (16:30) 2.78 (01:00) 0 0 0 0 0
31-10-2019 22.1 (15:50) 13.1 (23:59) 17.6 7.5 (15:10) 3.33 (15:10) 0 0 0 0 0
04-11-2019 23 (14:10) 13.2 (00:00) 18.1 8.89 (13:00) 3.33 (14:00) 1.6 0 0 0 1.6
02-11-2019 24.2 (14:10) 13.6 (00:00) 18.9 8.06 (14:00) 2.78 (14:40) 0.2 0.2 0 0 0

Gráficas

Temp. máximas Temp. mínimas Temp. medias Precipitaciones Rachas de viento máximas Velocidades máximas media en intervalos de 10 minutos

Datos horarios

Fecha y hora oficial Temperatura (ºC) Velocidad del viento (km/h) Dirección del viento Racha (km/h) Dirección de racha Precipitación (mm) Presión (hPa) Tendencia (hPa) Humedad (%)
2019-11-16 23:00:00 5.9 7 Sudeste 17 Este 0 -- -- 75
2019-11-16 22:00:00 5.7 6 Sudeste 17 Sudeste 0 -- -- 78
2019-11-16 21:00:00 5.5 5 Este 22 Este 0 -- -- 81
2019-11-16 20:00:00 6 8 Nordeste 31 Nordeste 0 -- -- 78
2019-11-16 19:00:00 6.2 6 Sudeste 21 Este 0 -- -- 77
2019-11-16 18:00:00 6.6 5 Este 23 Norte 0 -- -- 75
2019-11-16 17:00:00 7.8 6 Nordeste 23 Norte 0 -- -- 70
2019-11-16 16:00:00 9.8 7 Nordeste 21 Nordeste 0 -- -- 64
2019-11-16 15:00:00 9.5 6 Este 25 Norte 0 -- -- 63
2019-11-16 14:00:00 8.1 8 Nordeste 21 Este 0 -- -- 67
2019-11-16 13:00:00 7.8 6 Sudeste 22 Nordeste 0 -- -- 67
2019-11-16 12:00:00 6.5 3 Sur 15 Norte 0 -- -- 76
2019-11-16 11:00:00 5.3 8 Nordeste 21 Nordeste 0 -- -- 79
2019-11-16 10:00:00 4.1 6 Nordeste 15 Norte 0 -- -- 87
2019-11-16 09:00:00 3.2 5 Sur 14 Sudoeste 0 -- -- 90
2019-11-16 08:00:00 3.2 2 Noroeste 7 Sudeste 0 -- -- 89
2019-11-16 07:00:00 3.4 2 Nordeste 8 Nordeste 0 -- -- 90
2019-11-16 06:00:00 2.9 2 Este 7 Nordeste 0 -- -- 93
2019-11-16 05:00:00 2.6 2 Este 6 Sur 0 -- -- 91
2019-11-16 04:00:00 2.6 0 Calma 5 Norte 0 -- -- 90
2019-11-16 03:00:00 3 0 Calma 10 Este 0 -- -- 88
2019-11-16 02:00:00 3.4 4 Nordeste 10 Nordeste 0 -- -- 87
2019-11-16 01:00:00 3.2 2 Nordeste 13 Este 0 -- -- 86
2019-11-16 00:00:00 3.7 3 Este 8 Nordeste 0 -- -- 85
2019-11-15 23:00:00 4.8 5 Este 21 Nordeste 0 -- -- 79
2019-11-15 22:00:00 4.8 4 Este 12 Sudoeste 0 -- -- 81
2019-11-15 21:00:00 5 3 Sur 9 Este 0 -- -- 80
2019-11-15 20:00:00 6.3 4 Sur 13 Sur 0 -- -- 76
2019-11-15 19:00:00 7.2 4 Sur 17 Sur 0 -- -- 73
2019-11-15 18:00:00 8.1 5 Noroeste 14 Oeste 0 -- -- 71
2019-11-15 17:00:00 8.1 3 Norte 6 Este 0 -- -- 74
2019-11-15 16:00:00 8.4 2 Sudeste 5 Nordeste 0 -- -- 67
2019-11-15 15:00:00 8.7 2 Nordeste 12 Oeste 0 -- -- 62
2019-11-15 14:00:00 10.1 5 Sudoeste 12 Sudoeste 0 -- -- 59
2019-11-15 13:00:00 9.2 4 Noroeste 22 Oeste 0 -- -- 63
2019-11-15 12:00:00 9.8 7 Sudoeste 21 Sur 0 -- -- 63
2019-11-15 11:00:00 8 5 Sudoeste 16 Oeste 0 -- -- 72
2019-11-15 10:00:00 5.7 5 Norte 13 Este 0 -- -- 83
2019-11-15 09:00:00 4.7 0 Calma 9 Sur 0 -- -- 88
2019-11-15 08:00:00 4.8 3 Oeste 10 Norte 0 -- -- 87
2019-11-15 07:00:00 5.1 4 Sudeste 12 Norte 0 -- -- 86
2019-11-15 06:00:00 4.8 5 Este 9 Sudeste 0 -- -- 89
2019-11-15 05:00:00 4.8 3 Sudeste 8 Sudoeste 0 -- -- 87
2019-11-15 04:00:00 5.1 3 Nordeste 8 Nordeste 0 -- -- 83
2019-11-15 03:00:00 5.8 4 Este 13 Nordeste 0 -- -- 80
2019-11-15 02:00:00 5.7 3 Este 13 Este 0 -- -- 81
2019-11-15 01:00:00 3.9 2 Sudeste 5 Nordeste 0 -- -- 94
2019-11-15 00:00:00 3.2 0 Calma 5 Sur 0 -- -- 93
2019-11-14 23:00:00 3.2 0 Calma 4 Noroeste 0 -- -- 92
2019-11-14 22:00:00 3.6 0 Calma 5 Oeste 0 -- -- 90
2019-11-14 21:00:00 4.1 0 Calma 5 Norte 0 -- -- 89
2019-11-14 20:00:00 4.8 3 Nordeste 9 Este 0 -- -- 84
2019-11-14 19:00:00 6.4 3 Nordeste 8 Nordeste 0 -- -- 78
2019-11-14 18:00:00 7.4 4 Este 11 Sur 0 -- -- 74
2019-11-14 17:00:00 9.7 4 Sur 23 Sudoeste 0 -- -- 64
2019-11-14 16:00:00 10.1 4 Este 20 Sudoeste 0 -- -- 64
2019-11-14 15:00:00 8.2 5 Sudoeste 16 Oeste 0 -- -- 75
2019-11-14 14:00:00 6.8 5 Sur 17 Sudoeste 0 -- -- 82
2019-11-14 13:00:00 6.3 4 Sur 20 Sur 0 -- -- 88
2019-11-14 12:00:00 6.2 8 Oeste 18 Sudoeste 0 -- -- 89
2019-11-14 11:00:00 7 3 Este 27 Sur 0.2 -- -- 87
2019-11-14 10:00:00 8.7 8 Sudoeste 18 Sudoeste 0.8 -- -- 87
2019-11-14 09:00:00 10.6 6 Sudeste 28 Norte 1 -- -- 85
2019-11-14 08:00:00 10.6 0 Calma 12 Nordeste 0.2 -- -- 88
2019-11-14 07:00:00 11.2 4 Nordeste 13 Sudeste 0.2 -- -- 88
2019-11-14 06:00:00 11.9 5 Sur 21 Este 0 -- -- 85
2019-11-14 05:00:00 12.1 9 Este 26 Sudeste 0 -- -- 84
2019-11-14 04:00:00 11.7 9 Este 23 Este 0 -- -- 83
2019-11-14 03:00:00 11.4 10 Este 25 Sudeste 0 -- -- 80
2019-11-14 02:00:00 10 10 Sudeste 26 Este 0 -- -- 76
2019-11-14 01:00:00 6 0 Calma 7 Sur 0 -- -- 92
2019-11-14 00:00:00 6.2 0 Calma 5 Este 0 -- -- 90
2019-11-13 23:00:00 6.3 0 Calma 8 Este 0 -- -- 85
2019-11-13 22:00:00 8 5 Nordeste 12 Este 0 -- -- 79
2019-11-13 21:00:00 8.6 2 Nordeste 18 Este 0 -- -- 74
2019-11-13 20:00:00 9.1 8 Nordeste 21 Nordeste 0 -- -- 72
2019-11-13 19:00:00 8.7 3 Sudeste 12 Este 0 -- -- 80
2019-11-13 18:00:00 10.7 3 Sudeste 13 Este 0 -- -- 76
2019-11-13 17:00:00 13.6 0 Calma 10 Norte 0 -- -- 76
2019-11-13 16:00:00 12.2 3 Norte 10 Noroeste 0 -- -- 83
2019-11-13 15:00:00 10.1 4 Norte 10 Nordeste 0 -- -- 89
2019-11-13 14:00:00 9.1 4 Este 15 Sur 0 -- -- 91
2019-11-13 13:00:00 8.8 3 Sudeste 19 Sudoeste 0 -- -- 93
2019-11-13 12:00:00 8.5 3 Sudeste 13 Sur 0.6 -- -- 93
2019-11-13 11:00:00 8.1 4 Nordeste 14 Nordeste 2.6 -- -- 94
2019-11-13 10:00:00 8 4 Sur 10 Sudoeste 2.2 -- -- 93
2019-11-13 09:00:00 7.5 0 Calma 3 Este 2 -- -- 92
2019-11-13 08:00:00 7.3 0 Calma 2 Noroeste 0.6 -- -- 90
2019-11-13 07:00:00 7.9 3 Nordeste 7 Nordeste 0.4 -- -- 89
2019-11-13 06:00:00 7.4 0 Calma 4 Sudeste 0 -- -- 84
2019-11-13 05:00:00 7 0 Calma 13 Este 0 -- -- 82
2019-11-13 04:00:00 8.9 4 Este 13 Este 0 -- -- 75
2019-11-13 03:00:00 8 5 Este 13 Este 0 -- -- 78
2019-11-13 02:00:00 8.1 0 Calma 10 Nordeste 0 -- -- 75
2019-11-13 01:00:00 9 3 Nordeste 10 Norte 0 -- -- 71
2019-11-13 00:00:00 9.3 4 Nordeste 14 Norte 0 -- -- 71
2019-11-12 23:00:00 9.3 7 Nordeste 14 Norte 0 -- -- 71
2019-11-12 22:00:00 9.4 4 Este 12 Nordeste 0 -- -- 70
2019-11-12 21:00:00 9.6 4 Este 15 Norte 0 -- -- 67
2019-11-12 20:00:00 9.7 5 Este 13 Sudeste 0 -- -- 67
2019-11-12 19:00:00 10.1 5 Sudeste 15 Sudoeste 0 -- -- 67
2019-11-12 18:00:00 11.5 7 Sur 21 Sur 0 -- -- 62
2019-11-12 17:00:00 13.4 9 Sudoeste 26 Sur 0 -- -- 57
2019-11-12 16:00:00 13.4 7 Sudoeste 32 Sudoeste 0 -- -- 57
2019-11-12 15:00:00 15 12 Sudoeste 35 Sudoeste 0 -- -- 53
2019-11-12 14:00:00 14.3 12 Sur 31 Sudoeste 0 -- -- 56
2019-11-12 13:00:00 13.6 11 Sudoeste 34 Sudoeste 0 -- -- 59
2019-11-12 12:00:00 12.1 7 Sudoeste 22 Sudoeste 0 -- -- 65
2019-11-12 11:00:00 10.3 6 Sur 21 Sudoeste 0 -- -- 71
2019-11-12 10:00:00 7.2 5 Nordeste 15 Norte 0 -- -- 82
2019-11-12 09:00:00 5.1 4 Este 10 Nordeste 0 -- -- 86
2019-11-12 08:00:00 4.6 4 Nordeste 10 Sudeste 0 -- -- 88
2019-11-12 07:00:00 4.9 4 Sudeste 12 Sudeste 0 -- -- 87
2019-11-12 06:00:00 5.2 4 Este 9 Sudeste 0 -- -- 86
2019-11-12 05:00:00 5.4 5 Este 12 Este 0 -- -- 84
2019-11-12 04:00:00 5.7 4 Sudeste 15 Sur 0 -- -- 83
2019-11-12 03:00:00 5.9 4 Sudeste 11 Este 0 -- -- 82
2019-11-12 02:00:00 6.2 4 Sudeste 10 Sudeste 0 -- -- 81
2019-11-12 01:00:00 6.1 4 Sudeste 10 Sudoeste 0 -- -- 79
2019-11-12 00:00:00 7 3 Sur 10 Sur 0 -- -- 76
2019-11-11 23:00:00 7.4 0 Calma 10 Sudoeste 0 -- -- 74
2019-11-11 22:00:00 8.5 3 Sudeste 14 Sudoeste 0 -- -- 72
2019-11-11 21:00:00 9.2 4 Sudeste 14 Sur 0 -- -- 71
2019-11-11 20:00:00 10.2 8 Sudoeste 21 Sudoeste 0 -- -- 73
2019-11-11 19:00:00 10.6 3 Sudeste 17 Sur 0 -- -- 77
2019-11-11 18:00:00 10.8 5 Sur 17 Sudoeste 0 -- -- 74
2019-11-11 17:00:00 11.4 6 Sudoeste 22 Sur 0 -- -- 68
2019-11-11 16:00:00 11.8 8 Sur 22 Sur 0 -- -- 65
2019-11-11 15:00:00 12.5 8 Sur 32 Sudoeste 0 -- -- 61
2019-11-11 14:00:00 13.2 6 Sur 22 Sudeste 0 -- -- 58
2019-11-11 13:00:00 11.8 9 Sur 27 Sudoeste 0 -- -- 59
2019-11-11 12:00:00 10.5 4 Sur 18 Oeste 0 -- -- 67
2019-11-11 11:00:00 8.5 5 Nordeste 17 Norte 0 -- -- 74
2019-11-11 10:00:00 6.4 4 Este 13 Nordeste 0 -- -- 80
2019-11-11 09:00:00 5.5 3 Este 13 Norte 0 -- -- 83
2019-11-11 08:00:00 4.7 5 Este 10 Noroeste 0 -- -- 86
2019-11-11 07:00:00 4.4 4 Nordeste 11 Este 0 -- -- 85
2019-11-11 06:00:00 4 5 Este 11 Este 0 -- -- 86
2019-11-11 05:00:00 4 5 Este 15 Nordeste 0 -- -- 86
2019-11-11 04:00:00 3.2 5 Nordeste 13 Nordeste 0 -- -- 89
2019-11-11 03:00:00 2.8 0 Calma 11 Este 0 -- -- 88
2019-11-11 02:00:00 2.7 3 Este 10 Este 0 -- -- 89
2019-11-11 01:00:00 3.2 3 Sudeste 9 Sudeste 0 -- -- 88
2019-11-11 00:00:00 3.7 5 Sudeste 10 Sudoeste 0 -- -- 86
2019-11-10 23:00:00 4.2 3 Sur 10 Sudoeste 0 -- -- 84
2019-11-10 22:00:00 5.1 3 Sudoeste 11 Nordeste 0 -- -- 82
2019-11-10 21:00:00 5.7 5 Sudoeste 14 Sur 0 -- -- 80
2019-11-10 20:00:00 6.5 3 Sudoeste 16 Sudoeste 0 -- -- 75
2019-11-10 19:00:00 7.7 5 Nordeste 23 Norte 0 -- -- 68
2019-11-10 18:00:00 8.4 6 Sudeste 21 Sudeste 0 -- -- 67
2019-11-10 17:00:00 9.5 8 Sudeste 28 Sudeste 0 -- -- 62
2019-11-10 16:00:00 10.7 7 Sur 27 Este 0 -- -- 60
2019-11-10 15:00:00 10.5 10 Sur 34 Sudoeste 0 -- -- 62
2019-11-10 14:00:00 10.8 11 Sudeste 26 Sur 0 -- -- 57
2019-11-10 13:00:00 10.3 12 Sur 25 Sur 0 -- -- 61
2019-11-10 12:00:00 9.3 10 Sur 24 Sur 0 -- -- 65
2019-11-10 11:00:00 8.5 8 Sudoeste 33 Sudoeste 0 -- -- 70
2019-11-10 10:00:00 7.1 8 Sudeste 28 Sudoeste 0 -- -- 73
2019-11-10 09:00:00 6.2 4 Sudeste 16 Sudoeste 0 -- -- 78
2019-11-10 08:00:00 6.1 6 Sudeste 19 Noroeste 0 -- -- 77
2019-11-10 07:00:00 6.7 6 Sudoeste 18 Sudeste 0 -- -- 74
2019-11-10 06:00:00 7.1 6 Este 23 Nordeste 0 -- -- 73
2019-11-10 05:00:00 7.1 8 Este 23 Nordeste 0 -- -- 77
2019-11-10 04:00:00 7.5 5 Sudeste 22 Sudoeste 0 -- -- 86
2019-11-10 03:00:00 7.6 7 Sur 20 Sudoeste 0 -- -- 88
2019-11-10 02:00:00 8.1 7 Sudoeste 24 Sur 0.8 -- -- 86
2019-11-10 01:00:00 10.2 10 Sur 29 Sur 0 -- -- 72
2019-11-10 00:00:00 10.7 4 Sudeste 9 Sudeste 0 -- -- 68
2019-11-09 23:00:00 10.7 3 Este 16 Sudoeste 0 -- -- 68
2019-11-09 22:00:00 10.9 7 Sur 22 Sudoeste 0 -- -- 66
2019-11-09 21:00:00 11.1 5 Sudeste 13 Sur 0 -- -- 64
2019-11-09 20:00:00 11 5 Sudeste 11 Sudeste 0 -- -- 63
2019-11-09 19:00:00 11.4 4 Sur 20 Sur 0 -- -- 59
2019-11-09 18:00:00 11.9 5 Sudoeste 16 Sudoeste 0 -- -- 56
2019-11-09 17:00:00 12.3 6 Sudoeste 24 Sur 0 -- -- 54
2019-11-09 16:00:00 14.1 7 Sur 31 Sudoeste 0 -- -- 50
2019-11-09 15:00:00 14.3 9 Sudoeste 29 Sudoeste 0 -- -- 54
2019-11-09 14:00:00 13.8 10 Sur 28 Sur 0 -- -- 58
2019-11-09 13:00:00 12.6 5 Sudeste 24 Sur 0 -- -- 60
2019-11-09 12:00:00 12.6 9 Oeste 27 Sur 0 -- -- 58
2019-11-09 11:00:00 11.6 6 Oeste 23 Sur 0 -- -- 63
2019-11-09 10:00:00 8.9 4 Sur 14 Sur 0 -- -- 74
2019-11-09 09:00:00 7.7 3 Sudeste 14 Sur 0 -- -- 75
2019-11-09 08:00:00 7.7 6 Sudeste 21 Sur 0 -- -- 75
2019-11-09 07:00:00 7.4 7 Sur 23 Sur 0 -- -- 75
2019-11-09 06:00:00 7.5 8 Sur 22 Sudoeste 0 -- -- 75
2019-11-09 05:00:00 7.4 6 Sur 25 Sur 0 -- -- 75
2019-11-09 04:00:00 7.8 6 Sur 24 Sudoeste 0 -- -- 74
2019-11-09 03:00:00 7.9 9 Sur 22 Sudoeste 0 -- -- 75
2019-11-09 02:00:00 7.9 9 Sur 21 Sur 0 -- -- 75
2019-11-09 01:00:00 7.7 6 Sur 19 Sudoeste 0 -- -- 75
2019-11-09 00:00:00 7.8 6 Sur 24 Sudoeste 0 -- -- 76
2019-11-08 23:00:00 7.7 7 Sudeste 23 Sur 0 -- -- 76
2019-11-08 22:00:00 7.6 5 Sur 29 Sudoeste 0 -- -- 76
2019-11-08 21:00:00 7.8 6 Sudeste 25 Sudoeste 0 -- -- 76
2019-11-08 20:00:00 7.9 10 Sur 25 Sudoeste 0 -- -- 72
2019-11-08 19:00:00 8.4 9 Sur 31 Sudoeste 0 -- -- 72
2019-11-08 18:00:00 9 9 Sur 32 Sur 0 -- -- 69
2019-11-08 17:00:00 10.3 14 Sudoeste 50 Sudoeste 0 -- -- 60
2019-11-08 16:00:00 11.5 13 Sudoeste 31 Sudoeste 0 -- -- 52
2019-11-08 15:00:00 12.3 13 Sur 38 Sur 0 -- -- 48
2019-11-08 14:00:00 12.9 10 Sur 54 Sur 0 -- -- 47
2019-11-08 13:00:00 12.9 14 Sur 30 Sur 0 -- -- 49
2019-11-08 12:00:00 11.2 11 Sur 33 Sur 0 -- -- 55
2019-11-08 11:00:00 10.1 10 Sur 30 Sudoeste 0 -- -- 56
2019-11-08 10:00:00 8.2 12 Sur 28 Sudoeste 0 -- -- 62
2019-11-08 09:00:00 5.8 5 Sudeste 17 Sudeste 0 -- -- 69
2019-11-08 08:00:00 5.5 8 Sudeste 19 Sudeste 0 -- -- 70
2019-11-08 07:00:00 5.3 8 Sudeste 15 Sur 0 -- -- 71
2019-11-08 06:00:00 5.6 6 Sudeste 19 Sudoeste 0 -- -- 73
2019-11-08 05:00:00 5.8 5 Sudeste 14 Sur 0 -- -- 78
2019-11-08 04:00:00 6.2 4 Sudeste 11 Sudeste 0 -- -- 79
2019-11-08 03:00:00 6.2 4 Este 10 Este 0 -- -- 79
2019-11-08 02:00:00 6.7 5 Sur 14 Sur 0 -- -- 78
2019-11-08 01:00:00 6.9 5 Sudeste 18 Este 0 -- -- 77
2019-11-08 00:00:00 8 7 Sudeste 18 Sudeste 0 -- -- 73
2019-11-07 23:00:00 8.3 4 Sudeste 12 Sudeste 0 -- -- 72
2019-11-07 22:00:00 7.8 2 Sur 6 Este 0 -- -- 78
2019-11-07 21:00:00 8.7 4 Este 9 Este 0 -- -- 73
2019-11-07 20:00:00 9 4 Sudeste 9 Este 0 -- -- 72
2019-11-07 19:00:00 10 4 Este 11 Sudeste 0 -- -- 69
2019-11-07 18:00:00 11.8 4 Noroeste 13 Oeste 0 -- -- 63
2019-11-07 17:00:00 14.2 5 Sur 26 Sudoeste 0 -- -- 53
2019-11-07 16:00:00 13.5 6 Sur 23 Nordeste 0 -- -- 59
2019-11-07 15:00:00 12.7 9 Este 32 Nordeste 0 -- -- 69
2019-11-07 14:00:00 14.3 8 Noroeste 23 Oeste 0 -- -- 66
2019-11-07 13:00:00 14.9 6 Sudoeste 18 Sudoeste 0 -- -- 63
2019-11-07 12:00:00 14.2 7 Noroeste 21 Noroeste 0 -- -- 65
2019-11-07 11:00:00 11.5 2 Sudeste 4 Este 0 -- -- 75
2019-11-07 10:00:00 9.9 0 Calma 4 Noroeste 0 -- -- 85
2019-11-07 09:00:00 8.4 0 Calma 4 Este 0 -- -- 87
2019-11-07 08:00:00 7.9 3 Noroeste 6 Sudoeste 0 -- -- 83
2019-11-07 07:00:00 7.2 0 Calma 9 Nordeste 0 -- -- 84
2019-11-07 06:00:00 6.8 0 Calma 4 Oeste 0 -- -- 84
2019-11-07 05:00:00 7.3 3 Sudeste 5 Nordeste 0 -- -- 83
2019-11-07 04:00:00 7.1 0 Calma 4 Este 0 -- -- 86
2019-11-07 03:00:00 7.1 0 Calma 8 Sur 0 -- -- 84
2019-11-07 02:00:00 7.8 0 Calma 3 Sudoeste 0 -- -- 82
2019-11-07 01:00:00 8.5 0 Calma 5 Oeste 0 -- -- 80
2019-11-07 00:00:00 9.7 4 Norte 10 Nordeste 0 -- -- 73
2019-11-06 23:00:00 9.9 0 Calma 10 Nordeste 0 -- -- 72
2019-11-06 22:00:00 10.5 3 Este 18 Nordeste 0 -- -- 68
2019-11-06 21:00:00 11.6 5 Nordeste 15 Este 0 -- -- 63
2019-11-06 20:00:00 10.7 3 Nordeste 10 Nordeste 0 -- -- 69
2019-11-06 19:00:00 12 5 Este 17 Sudoeste 0 -- -- 63
2019-11-06 18:00:00 13.4 6 Sur 22 Sudoeste 0 -- -- 57
2019-11-06 17:00:00 15.2 6 Sur 21 Sudoeste 0 -- -- 52
2019-11-06 16:00:00 15.6 9 Sur 24 Sudoeste 0 -- -- 52
2019-11-06 15:00:00 14.6 9 Oeste 25 Sudoeste 0 -- -- 55
2019-11-06 14:00:00 14.2 9 Sudoeste 32 Sudoeste 0 -- -- 58
2019-11-06 13:00:00 14 8 Sudoeste 29 Sudoeste 0 -- -- 59
2019-11-06 12:00:00 14.3 10 Sudoeste 30 Sudoeste 0 -- -- 59
2019-11-06 11:00:00 14.4 9 Sudoeste 29 Sur 0 -- -- 57
2019-11-06 10:00:00 11.9 9 Sur 23 Sudoeste 0 -- -- 66
2019-11-06 09:00:00 10.5 11 Sudoeste 21 Oeste 0 -- -- 72
2019-11-06 08:00:00 9.5 5 Sudoeste 15 Sur 0 -- -- 77
2019-11-06 07:00:00 9.1 6 Sur 15 Sur 0 -- -- 78
2019-11-06 06:00:00 8.9 5 Sur 18 Sudoeste 0 -- -- 78
2019-11-06 05:00:00 9.4 4 Sur 21 Sudoeste 0 -- -- 75
2019-11-06 04:00:00 9.7 6 Sur 20 Sur 0 -- -- 74
2019-11-06 03:00:00 9.5 7 Sur 31 Sudoeste 0 -- -- 73
2019-11-06 02:00:00 9.8 10 Sudoeste 24 Sudoeste 0 -- -- 73
2019-11-06 01:00:00 9.8 6 Sur 18 Norte 0 -- -- 71
2019-11-06 00:00:00 9.9 8 Sudeste 21 Oeste 0 -- -- 69
2019-11-05 23:00:00 10.3 8 Sudeste 20 Sur 0 -- -- 69
2019-11-05 22:00:00 10.7 5 Sudeste 14 Este 0 -- -- 67
2019-11-05 21:00:00 11.2 4 Sudeste 15 Este 0 -- -- 65
2019-11-05 20:00:00 11.7 6 Sudeste 17 Sur 0 -- -- 62
2019-11-05 19:00:00 12.4 9 Sur 22 Sur 0 -- -- 61
2019-11-05 18:00:00 13.5 8 Sur 29 Sudoeste 0 -- -- 56
2019-11-05 17:00:00 15.2 5 Sur 30 Sudoeste 0 -- -- 52
2019-11-05 16:00:00 16 12 Sur 29 Sur 0 -- -- 48
2019-11-05 15:00:00 16.4 14 Sur 40 Sur 0 -- -- 46
2019-11-05 14:00:00 16 16 Sur 37 Sudoeste 0 -- -- 45
2019-11-05 13:00:00 15.6 14 Sur 40 Oeste 0 -- -- 48
2019-11-05 12:00:00 14.7 14 Sur 39 Sur 0 -- -- 53
2019-11-05 11:00:00 13.5 12 Sudoeste 30 Oeste 0 -- -- 58
2019-11-05 10:00:00 11.9 10 Sudoeste 28 Oeste 0 -- -- 64
2019-11-05 09:00:00 10.4 7 Sur 15 Nordeste 0 -- -- 69
2019-11-05 08:00:00 9.7 4 Este 12 Este 0 -- -- 76
2019-11-05 07:00:00 10.5 4 Sur 21 Sudoeste 0 -- -- 75
2019-11-05 06:00:00 11.2 7 Sudoeste 25 Sur 0 -- -- 79
2019-11-05 05:00:00 11.8 10 Sur 28 Sudoeste 0 -- -- 81
2019-11-05 04:00:00 12.1 9 Sur 21 Sudeste 0 -- -- 83
2019-11-05 03:00:00 12.5 9 Sur 21 Oeste 0 -- -- 82
2019-11-05 02:00:00 12.8 4 Noroeste 12 Sudoeste 0 -- -- 85
2019-11-05 01:00:00 13 3 Norte 10 Noroeste 0.8 -- -- 86
2019-11-05 00:00:00 13.6 3 Norte 11 Norte 1 -- -- 86
2019-11-04 23:00:00 14.7 4 Noroeste 15 Sudoeste 0.6 -- -- 82
2019-11-04 22:00:00 15.8 5 Este 21 Nordeste 0 -- -- 75
2019-11-04 21:00:00 18.4 6 Este 19 Nordeste 0 -- -- 56
2019-11-04 20:00:00 18.9 3 Sudeste 14 Noroeste 0 -- -- 49
2019-11-04 19:00:00 18.8 3 Este 13 Oeste 0 -- -- 52
2019-11-04 18:00:00 19.9 5 Oeste 24 Sur 0 -- -- 46
2019-11-04 17:00:00 21.5 8 Noroeste 26 Sudoeste 0 -- -- 44
2019-11-04 16:00:00 22.2 9 Oeste 30 Oeste 0 -- -- 43
2019-11-04 15:00:00 23 10 Oeste 30 Noroeste 0 -- -- 41
2019-11-04 14:00:00 22.8 12 Noroeste 28 Sudoeste 0 -- -- 44
2019-11-04 13:00:00 22.1 11 Oeste 32 Oeste 0 -- -- 46
2019-11-04 12:00:00 20.5 7 Oeste 22 Sur 0 -- -- 51
2019-11-04 11:00:00 19.2 6 Sur 16 Sudoeste 0 -- -- 56
2019-11-04 10:00:00 16.4 6 Sudoeste 18 Sudoeste 0 -- -- 64
2019-11-04 09:00:00 14.1 5 Sudeste 10 Este 0 -- -- 71
2019-11-04 08:00:00 13.7 3 Sudeste 12 Nordeste 0 -- -- 70
2019-11-04 07:00:00 13.3 3 Sur 13 Este 0 -- -- 69
2019-11-04 06:00:00 14.3 5 Nordeste 14 Este 0 -- -- 64
2019-11-04 05:00:00 14.5 5 Este 18 Nordeste 0 -- -- 60
2019-11-04 04:00:00 14.4 5 Este 18 Nordeste 0 -- -- 57
2019-11-04 03:00:00 14.1 8 Este 17 Nordeste 0 -- -- 57
2019-11-04 02:00:00 13.3 7 Este 13 Nordeste 0 -- -- 59
2019-11-04 01:00:00 13.5 6 Este 18 Este 0 -- -- 59
2019-11-04 00:00:00 13.7 7 Este 19 Nordeste 0 -- -- 57
2019-11-03 23:00:00 13.3 6 Este 14 Este 0 -- -- 56
2019-11-03 22:00:00 12.8 6 Nordeste 18 Nordeste 0 -- -- 56
2019-11-03 21:00:00 13.5 6 Este 31 Norte 0 -- -- 54
2019-11-03 20:00:00 13.7 8 Este 49 Nordeste 0 -- -- 54
2019-11-03 19:00:00 14.1 12 Nordeste 40 Este 0 -- -- 52
2019-11-03 18:00:00 14.8 13 Este 49 Norte 0 -- -- 48
2019-11-03 17:00:00 16.6 11 Sudeste 34 Sudoeste 0 -- -- 44
2019-11-03 16:00:00 17.4 13 Sur 37 Sur 0 -- -- 44
2019-11-03 15:00:00 17.4 15 Sudoeste 45 Sudoeste 0 -- -- 45
2019-11-03 14:00:00 16.7 17 Sudoeste 53 Sudoeste 0 -- -- 46
2019-11-03 13:00:00 16.2 15 Sur 49 Sudoeste 0 -- -- 50
2019-11-03 12:00:00 15.3 19 Sur 51 Sur 0 -- -- 53
2019-11-03 11:00:00 13.8 14 Sudoeste 37 Sur 0 -- -- 62
2019-11-03 10:00:00 12.6 11 Sudeste 44 Sur 2.2 -- -- 78
2019-11-03 09:00:00 16.3 5 Sudoeste 15 Sudoeste 0 -- -- 64
2019-11-03 08:00:00 14.1 3 Sudeste 10 Sur 0 -- -- 78
2019-11-03 07:00:00 12.8 2 Este 6 Nordeste 0 -- -- 88
2019-11-03 06:00:00 13.3 0 Calma 5 Nordeste 0 -- -- 91
2019-11-03 05:00:00 14.2 0 Calma 5 Nordeste 0 -- -- 93
2019-11-03 04:00:00 14.4 0 Calma 5 Nordeste 0 -- -- 91
2019-11-03 03:00:00 14.7 2 Sur 21 Nordeste 1 -- -- 88
2019-11-03 02:00:00 16.3 6 Este 22 Nordeste 0 -- -- 78
2019-11-03 01:00:00 15.6 0 Calma 10 Este 0 -- -- 79
2019-11-03 00:00:00 15.4 2 Este 5 Sudeste 0 -- -- 81
2019-11-02 23:00:00 15.6 2 Sudoeste 5 Este 0 -- -- 80
2019-11-02 22:00:00 15.4 0 Calma 6 Sudeste 0 -- -- 81
2019-11-02 21:00:00 15.9 3 Sur 6 Sudeste 0 -- -- 79
2019-11-02 20:00:00 17 0 Calma 5 Nordeste 0 -- -- 74
2019-11-02 19:00:00 17.6 0 Calma 9 Este 0 -- -- 70
2019-11-02 18:00:00 19.6 0 Calma 10 Norte 0 -- -- 61
2019-11-02 17:00:00 20.2 5 Sudeste 19 Norte 0 -- -- 60
2019-11-02 16:00:00 23.1 4 Norte 20 Noroeste 0 -- -- 50
2019-11-02 15:00:00 23.8 8 Oeste 27 Oeste 0 -- -- 47
2019-11-02 14:00:00 24.1 8 Oeste 29 Sur 0 -- -- 49
2019-11-02 13:00:00 22.8 6 Oeste 24 Sudoeste 0 -- -- 54
2019-11-02 12:00:00 22 6 Sudoeste 20 Sur 0 -- -- 58
2019-11-02 11:00:00 20.5 4 Sudeste 8 Este 0 -- -- 66
2019-11-02 10:00:00 16.2 2 Sudeste 6 Sudoeste 0 -- -- 86
2019-11-02 09:00:00 13.7 0 Calma 5 Este 0 -- -- 91
2019-11-02 08:00:00 13.7 0 Calma 5 Sudeste 0 -- -- 90
2019-11-02 07:00:00 14.4 0 Calma 8 Norte 0 -- -- 87
2019-11-02 06:00:00 15.2 5 Sudeste 13 Este 0 -- -- 86
2019-11-02 05:00:00 15.4 0 Calma 9 Nordeste 0 -- -- 86
2019-11-02 04:00:00 16.5 5 Este 12 Este 0 -- -- 83
2019-11-02 03:00:00 16.6 3 Este 10 Este 0 -- -- 85
2019-11-02 02:00:00 16.1 2 Este 8 Este 0.2 -- -- 88
2019-11-02 01:00:00 17.5 2 Nordeste 7 Este 0 -- -- 86
2019-11-02 00:00:00 17.3 0 Calma 11 Este 0 -- -- 90
2019-11-01 23:00:00 16.9 0 Calma 5 Sur 0 -- -- 92
2019-11-01 22:00:00 16.8 0 Calma 4 Oeste 0 -- -- 91
2019-11-01 21:00:00 17.3 0 Calma 5 Sudeste 0 -- -- 90
2019-11-01 20:00:00 18.2 3 Este 6 Este 0.2 -- -- 86
2019-11-01 19:00:00 18.3 0 Calma 5 Este 0 -- -- 79
2019-11-01 18:00:00 20.3 0 Calma 4 Este 0 -- -- 72
2019-11-01 17:00:00 22.7 3 Norte 10 Sur 0 -- -- 61
2019-11-01 16:00:00 23.5 2 Sudoeste 10 Sudoeste 0 -- -- 58
2019-11-01 15:00:00 23.8 5 Noroeste 16 Oeste 0 -- -- 57
2019-11-01 14:00:00 22.4 4 Oeste 15 Oeste 0 -- -- 62
2019-11-01 13:00:00 21.1 5 Noroeste 14 Oeste 0 -- -- 63
2019-11-01 12:00:00 19.2 2 Sudoeste 8 Sudoeste 0 -- -- 67
2019-11-01 11:00:00 18.4 4 Noroeste 9 Sur 0 -- -- 69
2019-11-01 10:00:00 16.2 2 Sur 8 Oeste 0 -- -- 77
2019-11-01 09:00:00 13.1 2 Este 7 Sudeste 0 -- -- 84
2019-11-01 08:00:00 14.7 4 Sudeste 9 Sudeste 0 -- -- 74
2019-11-01 07:00:00 13.1 2 Norte 11 Norte 0 -- -- 82
2019-11-01 06:00:00 14.7 4 Noroeste 14 Sudeste 0 -- -- 75
2019-11-01 05:00:00 14.3 4 Este 13 Este 0 -- -- 77
2019-11-01 04:00:00 13.2 3 Este 9 Este 0 -- -- 81
2019-11-01 03:00:00 13 3 Nordeste 10 Este 0 -- -- 82
2019-11-01 02:00:00 13.4 3 Nordeste 8 Nordeste 0 -- -- 80
2019-11-01 01:00:00 12.8 3 Este 9 Este 0 -- -- 81
2019-11-01 00:00:00 13.1 4 Sudeste 9 Sur 0 -- -- 79
2019-10-31 23:00:00 14.6 3 Este 8 Este 0 -- -- 69
2019-10-31 22:00:00 16.1 5 Este 11 Nordeste 0 -- -- 63
2019-10-31 21:00:00 16.2 2 Norte 13 Nordeste 0 -- -- 64
2019-10-31 20:00:00 16.8 3 Nordeste 10 Este 0 -- -- 64
2019-10-31 19:00:00 18.1 5 Este 13 Sur 0 -- -- 59
2019-10-31 18:00:00 19.5 5 Sur 15 Sudoeste 0 -- -- 56
2019-10-31 17:00:00 21.5 8 Sur 21 Sudoeste 0 -- -- 49
2019-10-31 16:00:00 21.7 7 Sur 27 Sur 0 -- -- 51
2019-10-31 15:00:00 21.6 10 Sur 26 Sudeste 0 -- -- 51
2019-10-31 14:00:00 21.2 9 Sur 20 Norte 0 -- -- 57
2019-10-31 13:00:00 19.5 3 Sur 15 Oeste 0 -- -- 74
2019-10-31 12:00:00 18.1 4 Sudoeste 12 Sudoeste 0 -- -- 77
2019-10-31 11:00:00 17.6 6 Oeste 15 Noroeste 0 -- -- 78
2019-10-31 10:00:00 16.2 3 Sur 9 Sudoeste 0 -- -- 82
2019-10-31 09:00:00 15.2 3 Este 11 Nordeste 0 -- -- 84
2019-10-31 08:00:00 14.4 2 Sudeste 4 Sudeste 0 -- -- 86
2019-10-31 07:00:00 14.6 2 Noroeste 9 Este 0 -- -- 83
2019-10-31 06:00:00 14.6 0 Calma 9 Sudeste 0 -- -- 83
2019-10-31 05:00:00 14.5 2 Sudeste 15 Sudeste 0 -- -- 86
2019-10-31 04:00:00 14.2 2 Nordeste 8 Noroeste 0 -- -- 86
2019-10-31 03:00:00 15 3 Este 10 Nordeste 0 -- -- 82
2019-10-31 02:00:00 14.4 0 Calma 6 Norte 0 -- -- 83
2019-10-31 01:00:00 14.2 2 Nordeste 7 Norte 0 -- -- 86
2019-10-31 00:00:00 14 0 Calma 3 Sudeste 0 -- -- 86
2019-10-30 23:00:00 14.6 0 Calma 5 Sudeste 0 -- -- 84
2019-10-30 22:00:00 14.7 0 Calma 3 Norte 0 -- -- 82
2019-10-30 21:00:00 14.9 0 Calma 3 Sudeste 0 -- -- 80
2019-10-30 20:00:00 16.1 0 Calma 5 Noroeste 0 -- -- 74
2019-10-30 19:00:00 17.7 2 Nordeste 11 Este 0 -- -- 67
2019-10-30 18:00:00 18.4 7 Este 11 Nordeste 0 -- -- 62
2019-10-30 17:00:00 20 4 Nordeste 12 Sudoeste 0 -- -- 58
2019-10-30 16:00:00 21 6 Sudoeste 15 Sudoeste 0 -- -- 59
2019-10-30 15:00:00 22.3 5 Nordeste 17 Noroeste 0 -- -- 53
2019-10-30 14:00:00 21.8 3 Sur 15 Sudoeste 0 -- -- 55
2019-10-30 13:00:00 21.6 5 Sur 20 Sur 0 -- -- 60
2019-10-30 12:00:00 20 4 Oeste 17 Norte 0 -- -- 65
2019-10-30 11:00:00 18.2 4 Norte 13 Noroeste 0 -- -- 77
2019-10-30 10:00:00 14.7 3 Sudeste 8 Sudeste 0 -- -- 97
2019-10-30 09:00:00 11.7 0 Calma 4 Nordeste 0 -- -- 96
2019-10-30 08:00:00 11.9 0 Calma 3 Sur 0 -- -- 96
2019-10-30 07:00:00 11.9 0 Calma 4 Sudeste 0 -- -- 96
2019-10-30 06:00:00 11.9 0 Calma 4 Sur 0 -- -- 95
2019-10-30 05:00:00 12.2 0 Calma 3 Sudeste 0 -- -- 95
2019-10-30 04:00:00 12.5 0 Calma 9 Nordeste 0 -- -- 94
2019-10-30 03:00:00 11.9 0 Calma 3 Este 0 -- -- 94
2019-10-30 02:00:00 12.2 0 Calma 5 Norte 0 -- -- 94
2019-10-30 01:00:00 12.5 0 Calma 4 Noroeste 0 -- -- 92
2019-10-30 00:00:00 12.7 0 Calma 4 Sur 0 -- -- 91
2019-10-29 23:00:00 13 0 Calma 3 Sur 0 -- -- 90
2019-10-29 22:00:00 13.5 0 Calma 3 Sur 0 -- -- 88
2019-10-29 21:00:00 14.4 0 Calma 6 Este 0 -- -- 85
2019-10-29 20:00:00 14.5 0 Calma 2 Sudeste 0 -- -- 87
2019-10-29 19:00:00 15.7 0 Calma 2 Oeste 0 -- -- 83
2019-10-29 18:00:00 18.1 0 Calma 5 Noroeste 0 -- -- 75
2019-10-29 17:00:00 20.5 4 Oeste 9 Oeste 0 -- -- 68
2019-10-29 16:00:00 19.5 5 Oeste 14 Oeste 0 -- -- 72
2019-10-29 15:00:00 21.5 6 Oeste 14 Oeste 0 -- -- 64
2019-10-29 14:00:00 19.3 6 Noroeste 13 Oeste 0 -- -- 73
2019-10-29 13:00:00 17.2 9 Oeste 17 Oeste 0 -- -- 83
2019-10-29 12:00:00 16.2 3 Sur 9 Sur 0 -- -- 92
2019-10-29 11:00:00 14.4 3 Sur 6 Sur 0 -- -- 96
2019-10-29 10:00:00 12.9 2 Sudoeste 5 Sudeste 0 -- -- 98
2019-10-29 09:00:00 11 3 Sudeste 5 Este 0 -- -- 98
2019-10-29 08:00:00 9.7 0 Calma 3 Norte 0 -- -- 97
2019-10-29 07:00:00 9.3 0 Calma 4 Sudeste 0 -- -- 96
2019-10-29 06:00:00 9.7 0 Calma 4 Sur 0 -- -- 96
2019-10-29 05:00:00 10 2 Nordeste 4 Sudeste 0 -- -- 96
2019-10-29 04:00:00 10.3 0 Calma 4 Sudeste 0 -- -- 96
2019-10-29 03:00:00 10.6 0 Calma 3 Sudeste 0 -- -- 96
2019-10-29 02:00:00 10.8 0 Calma 4 Sudoeste 0 -- -- 95
2019-10-29 01:00:00 11.1 0 Calma 2 Sudeste 0 -- -- 95
2019-10-29 00:00:00 12 0 Calma 4 Sudeste 0 -- -- 95
2019-10-28 23:00:00 12.3 0 Calma 5 Sudeste 0 -- -- 94
2019-10-28 22:00:00 12.8 0 Calma 4 Sudeste 0 -- -- 94
2019-10-28 21:00:00 13.3 0 Calma 3 Norte 0 -- -- 92
2019-10-28 20:00:00 14.1 2 Sudeste 4 Sudeste 0 -- -- 90
2019-10-28 19:00:00 15.3 0 Calma 3 Sudeste 0 -- -- 86
2019-10-28 18:00:00 17.9 2 Noroeste 5 Noroeste 0 -- -- 79
2019-10-28 17:00:00 18.2 2 Sudeste 6 Sudeste 0 -- -- 77
2019-10-28 16:00:00 19 2 Sudoeste 8 Sudoeste 0 -- -- 73
2019-10-28 15:00:00 18.1 6 Oeste 15 Sudeste 0 -- -- 77
2019-10-28 14:00:00 18.6 5 Sudoeste 12 Sudoeste 0 -- -- 71
2019-10-28 13:00:00 18.2 3 Sur 12 Sudoeste 0 -- -- 72
2019-10-28 12:00:00 17.3 5 Sur 10 Sur 0 -- -- 75
2019-10-28 11:00:00 14.7 0 Calma 10 Este 0 -- -- 82
2019-10-28 10:00:00 13.2 0 Calma 4 Noroeste 0 -- -- 90
2019-10-28 09:00:00 12.3 0 Calma 4 Noroeste 0 -- -- 89
2019-10-28 08:00:00 11.9 0 Calma 6 Sudeste 0 -- -- 89
2019-10-28 07:00:00 12 0 Calma 4 Sudeste 0 -- -- 87
2019-10-28 06:00:00 12 0 Calma 8 Sur 0 -- -- 87
2019-10-28 05:00:00 12.3 0 Calma 4 Sur 0 -- -- 86
2019-10-28 04:00:00 12.1 3 Este 6 Este 0 -- -- 85
2019-10-28 03:00:00 11.9 0 Calma 9 Sur 0 -- -- 85
2019-10-28 02:00:00 12.1 0 Calma 3 Sudeste 0 -- -- 84
2019-10-28 01:00:00 12 2 Nordeste 5 Este 0 -- -- 84
2019-10-28 00:00:00 12.5 0 Calma 6 Sudeste 0 -- -- 83
2019-10-27 23:00:00 12.9 0 Calma 4 Nordeste 0 -- -- 82
2019-10-27 22:00:00 13.3 0 Calma 8 Este 0 -- -- 81
2019-10-27 21:00:00 13.8 0 Calma 5 Norte 0 -- -- 81
2019-10-27 20:00:00 14.8 2 Sur 9 Sudeste 0 -- -- 77
2019-10-27 19:00:00 17 3 Sudeste 8 Este 0 -- -- 71
2019-10-27 18:00:00 19.6 2 Sudeste 9 Sudoeste 0 -- -- 63
2019-10-27 17:00:00 21.2 5 Oeste 21 Oeste 0 -- -- 60
2019-10-27 16:00:00 22.7 4 Sudoeste 12 Oeste 0 -- -- 56
2019-10-27 15:00:00 23.1 4 Sur 14 Sur 0 -- -- 48
2019-10-27 14:00:00 23 5 Oeste 14 Sudoeste 0 -- -- 52
2019-10-27 13:00:00 21.8 6 Noroeste 14 Oeste 0 -- -- 52
2019-10-27 12:00:00 21.4 4 Sudoeste 11 Sur 0 -- -- 54
2019-10-27 11:00:00 19 0 Calma 4 Sur 0 -- -- 65
2019-10-27 10:00:00 14.1 3 Sur 4 Sudeste 0 -- -- 88
2019-10-27 09:00:00 10 0 Calma 3 Sudeste 0 -- -- 95
2019-10-27 08:00:00 9.2 0 Calma 5 Sudeste 0 -- -- 94
2019-10-27 07:00:00 9.4 0 Calma 5 Sudeste 0 -- -- 93
2019-10-27 06:00:00 10 0 Calma 5 Sudeste 0 -- -- 93
2019-10-27 05:00:00 10 0 Calma 4 Sudeste 0 -- -- 91
2019-10-27 04:00:00 10.6 0 Calma 4 Sudoeste 0 -- -- 89
2019-10-27 03:00:00 10.8 2 Sudoeste 6 Sur 0 -- -- 87
2019-10-27 02:00:00 11.8 0 Calma 5 Sudeste 0 -- -- 84
2019-10-27 01:00:00 14.8 3 Sur 13 Sudeste 0 -- -- 72
2019-10-27 00:00:00 13.6 3 Sudoeste 10 Sudeste 0 -- -- 78
2019-10-26 23:00:00 14.1 2 Este 10 Noroeste 0 -- -- 75
2019-10-26 22:00:00 14.9 2 Sudoeste 10 Sudeste 0 -- -- 72
2019-10-26 21:00:00 15.9 3 Sudeste 17 Sudeste 0 -- -- 71
2019-10-26 20:00:00 17.1 5 Sur 14 Sudeste 0 -- -- 69
2019-10-26 19:00:00 19.8 4 Sur 15 Noroeste 0 -- -- 57
2019-10-26 18:00:00 22.9 4 Sudoeste 16 Sudeste 0 -- -- 52
2019-10-26 17:00:00 23.9 5 Sur 13 Sur 0 -- -- 50
2019-10-26 16:00:00 23.8 5 Oeste 14 Sur 0 -- -- 48
2019-10-26 15:00:00 23.4 4 Sur 13 Sudoeste 0 -- -- 48
2019-10-26 14:00:00 22.6 5 Oeste 12 Sudoeste 0 -- -- 54
2019-10-26 13:00:00 21.2 5 Sudoeste 12 Sur 0 -- -- 56
2019-10-26 12:00:00 19 0 Calma 4 Sur 0 -- -- 68
2019-10-26 11:00:00 14.3 2 Sur 3 Sur 0 -- -- 92
2019-10-26 10:00:00 10.2 0 Calma 3 Sur 0 -- -- 96
2019-10-26 09:00:00 9.7 0 Calma 2 Noroeste 0 -- -- 95
2019-10-26 08:00:00 9.9 0 Calma 6 Sudeste 0 -- -- 95
2019-10-26 07:00:00 9.9 0 Calma 3 Sur 0 -- -- 94
2019-10-26 06:00:00 10.6 0 Calma 4 Noroeste 0 -- -- 94
2019-10-26 05:00:00 10.7 0 Calma 5 Sudeste 0 -- -- 94
2019-10-26 04:00:00 10.8 0 Calma 3 Sudeste 0 -- -- 94
2019-10-26 03:00:00 10.8 0 Calma 3 Sudeste 0 -- -- 92
2019-10-26 02:00:00 11.1 0 Calma 3 Sur 0 -- -- 91
2019-10-26 01:00:00 11.2 0 Calma 4 Sudeste 0 -- -- 89
2019-10-26 00:00:00 11.8 0 Calma 4 Sur 0 -- -- 87
2019-10-25 23:00:00 12.2 0 Calma 4 Sudeste 0 -- -- 86
2019-10-25 22:00:00 13.1 0 Calma 4 Sudeste 0 -- -- 83
2019-10-25 21:00:00 14 0 Calma 4 Oeste 0 -- -- 79
2019-10-25 20:00:00 15.7 0 Calma 2 Sudoeste 0 -- -- 75
2019-10-25 19:00:00 19.2 0 Calma 3 Oeste 0 -- -- 63
2019-10-25 18:00:00 22.2 2 Sur 11 Oeste 0 -- -- 52
2019-10-25 17:00:00 22.3 3 Oeste 12 Sur 0 -- -- 50
2019-10-25 16:00:00 21.9 4 Oeste 16 Oeste 0 -- -- 53
2019-10-25 15:00:00 21 4 Noroeste 17 Sudoeste 0 -- -- 57
2019-10-25 14:00:00 19.5 6 Sudoeste 20 Sur 0 -- -- 59
2019-10-25 13:00:00 17.9 7 Noroeste 17 Sudeste 0 -- -- 61
2019-10-25 12:00:00 16.4 7 Norte 15 Norte 0 -- -- 67
2019-10-25 11:00:00 14.5 4 Norte 17 Norte 0 -- -- 74
2019-10-25 10:00:00 11.9 5 Este 14 Este 0 -- -- 82
2019-10-25 09:00:00 11.6 5 Sudeste 14 Este 0 -- -- 83
2019-10-25 08:00:00 11.8 6 Este 16 Este 0 -- -- 82
2019-10-25 07:00:00 12.1 7 Este 18 Nordeste 0 -- -- 80
2019-10-25 06:00:00 10.8 2 Sur 9 Este 0 -- -- 85
2019-10-25 05:00:00 10.4 3 Este 6 Nordeste 0 -- -- 87
2019-10-25 04:00:00 11.7 3 Nordeste 10 Nordeste 0 -- -- 81
2019-10-25 03:00:00 11.4 4 Nordeste 10 Nordeste 0 -- -- 83
2019-10-25 02:00:00 11.5 3 Este 15 Este 0 -- -- 82
2019-10-25 01:00:00 11.4 4 Este 9 Nordeste 0 -- -- 81
2019-10-25 00:00:00 12 3 Este 10 Este 0 -- -- 77
2019-10-24 23:00:00 12.8 2 Norte 13 Nordeste 0 -- -- 72
2019-10-24 22:00:00 13.8 5 Este 10 Nordeste 0 -- -- 67
2019-10-24 21:00:00 13.7 3 Este 13 Este 0 -- -- 67
2019-10-24 20:00:00 13.6 3 Nordeste 16 Sur 0 -- -- 68
2019-10-24 19:00:00 15.8 5 Sur 17 Sur 0 -- -- 60
2019-10-24 18:00:00 16.6 8 Sur 23 Sudoeste 0 -- -- 58
2019-10-24 17:00:00 16.7 9 Sudoeste 31 Sudoeste 0 -- -- 58
2019-10-24 16:00:00 16.4 8 Sudoeste 24 Sudoeste 0 -- -- 62
2019-10-24 15:00:00 16.9 8 Sudoeste 24 Sur 0 -- -- 63
2019-10-24 14:00:00 14.3 7 Sur 17 Sur 0 -- -- 73
2019-10-24 13:00:00 14.2 9 Sur 21 Sudoeste 0 -- -- 73
2019-10-24 12:00:00 12.9 6 Sudoeste 19 Sudeste 0 -- -- 82
2019-10-24 11:00:00 12 4 Este 14 Nordeste 0 -- -- 82
2019-10-24 10:00:00 10 6 Norte 18 Norte 0 -- -- 87
2019-10-24 09:00:00 9.5 5 Este 10 Noroeste 0 -- -- 93
2019-10-24 08:00:00 9.7 4 Sur 8 Sur 0 -- -- 95
2019-10-24 07:00:00 9.5 4 Nordeste 8 Noroeste 0 -- -- 96
2019-10-24 06:00:00 8.2 0 Calma 4 Sudeste 0 -- -- 94
2019-10-24 05:00:00 8.9 0 Calma 10 Este 0 -- -- 93
2019-10-24 04:00:00 8.7 0 Calma 7 Sudeste 0 -- -- 93
2019-10-24 03:00:00 9.2 0 Calma 4 Este 0 -- -- 91
2019-10-24 02:00:00 10.5 2 Sudoeste 6 Este 0 -- -- 88
2019-10-24 01:00:00 10.8 0 Calma 4 Sudeste 0 -- -- 87
2019-10-24 00:00:00 12.2 2 Oeste 17 Sudeste 0 -- -- 79
2019-10-23 23:00:00 13.3 7 Este 18 Sudeste 0 -- -- 74
2019-10-23 22:00:00 13.1 6 Sudeste 13 Este 0 -- -- 76
2019-10-23 21:00:00 13.1 6 Norte 14 Sur 0 -- -- 80
2019-10-23 20:00:00 13.2 3 Noroeste 10 Nordeste 0 -- -- 81
2019-10-23 19:00:00 14.7 3 Noroeste 21 Este 0 -- -- 73
2019-10-23 18:00:00 16.6 9 Sudeste 21 Sudeste 0 -- -- 67
2019-10-23 17:00:00 18 4 Sur 20 Oeste 0 -- -- 61
2019-10-23 16:00:00 16.4 4 Oeste 17 Sur 0 -- -- 66
2019-10-23 15:00:00 16.6 3 Este 23 Sudeste 0 -- -- 65
2019-10-23 14:00:00 16.6 6 Sur 17 Sudeste 0 -- -- 71
2019-10-23 13:00:00 16 5 Noroeste 14 Oeste 0 -- -- 81
2019-10-23 12:00:00 15 5 Noroeste 12 Oeste 0 -- -- 85
2019-10-23 11:00:00 13.9 3 Sudeste 7 Sudoeste 0 -- -- 90
2019-10-23 10:00:00 12.4 3 Oeste 24 Este 0 -- -- 92
2019-10-23 09:00:00 12.4 9 Sudoeste 26 Sur 0 -- -- 90
2019-10-23 08:00:00 12 7 Sudoeste 19 Sudoeste 0 -- -- 95
2019-10-23 07:00:00 11.7 5 Noroeste 16 Oeste 0 -- -- 96
2019-10-23 06:00:00 11.9 6 Noroeste 18 Norte 0 -- -- 96
2019-10-23 05:00:00 11.3 6 Sur 15 Sur 0 -- -- 96
2019-10-23 04:00:00 12.2 3 Noroeste 15 Sudeste 0 -- -- 94
2019-10-23 03:00:00 13.3 6 Nordeste 24 Sudeste 1.4 -- -- 92
2019-10-23 02:00:00 12.7 5 Oeste 19 Sudeste 5.6 -- -- 96
2019-10-23 01:00:00 11.8 6 Este 15 Nordeste 5.4 -- -- 98
2019-10-23 00:00:00 10 2 Nordeste 12 Sudeste 5.6 -- -- 97
2019-10-22 23:00:00 9.7 4 Este 13 Sur 3.6 -- -- 97
2019-10-22 22:00:00 9.7 4 Noroeste 17 Noroeste 4.2 -- -- 97
2019-10-22 21:00:00 9.4 4 Nordeste 12 Noroeste 0 -- -- 97
2019-10-22 20:00:00 9 5 Este 13 Norte 0.8 -- -- 97
2019-10-22 19:00:00 8.9 4 Nordeste 17 Nordeste 2.6 -- -- 96
2019-10-22 18:00:00 8.9 6 Este 26 Noroeste 35.8 -- -- 96
2019-10-22 17:00:00 9.8 13 Noroeste 32 Noroeste 25 -- -- 96
2019-10-22 16:00:00 10 6 Este 22 Noroeste 10.6 -- -- 95
2019-10-22 15:00:00 9.5 6 Noroeste 16 Noroeste 11 -- -- 95
2019-10-22 14:00:00 10.2 6 Nordeste 15 Nordeste 11 -- -- 95
2019-10-22 13:00:00 10.4 4 Oeste 18 Norte 7.8 -- -- 95
2019-10-22 12:00:00 11.1 6 Nordeste 16 Norte 3.6 -- -- 95
2019-10-22 11:00:00 11 3 Sur 8 Sudoeste 3.2 -- -- 95
2019-10-22 10:00:00 10.8 3 Oeste 12 Norte 1 -- -- 95
2019-10-22 09:00:00 10.5 3 Oeste 8 Sudoeste 0.6 -- -- 93
2019-10-22 08:00:00 10.7 2 Sur 10 Sudeste 0.4 -- -- 93
2019-10-22 07:00:00 11.2 2 Sudeste 11 Sudeste 0.2 -- -- 91
2019-10-22 06:00:00 11.2 3 Oeste 9 Oeste 0 -- -- 89
2019-10-22 05:00:00 11.4 2 Norte 7 Sudoeste 0 -- -- 87
2019-10-22 04:00:00 11.3 0 Calma 5 Sur 0 -- -- 87
2019-10-22 03:00:00 11.2 2 Noroeste 6 Sur 0 -- -- 86
2019-10-22 02:00:00 11.2 0 Calma 6 Noroeste 0 -- -- 85
2019-10-22 01:00:00 12 0 Calma 5 Sudeste 0 -- -- 82
2019-10-22 00:00:00 13 0 Calma 10 Norte 0 -- -- 77
2019-10-21 23:00:00 13.4 0 Calma 8 Norte 0 -- -- 77
2019-10-21 22:00:00 14.2 2 Este 9 Este 0 -- -- 74
2019-10-21 21:00:00 15 2 Sudeste 13 Sudeste 0 -- -- 70
2019-10-21 20:00:00 15.7 6 Sur 17 Sudeste 0 -- -- 65
2019-10-21 19:00:00 17.3 6 Sudeste 12 Sudeste 0 -- -- 56
2019-10-21 18:00:00 18.8 4 Noroeste 10 Sudoeste 0 -- -- 54
2019-10-21 17:00:00 19.7 4 Oeste 14 Noroeste 0 -- -- 50
2019-10-21 16:00:00 19.7 4 Oeste 13 Sudoeste 0 -- -- 51
2019-10-21 15:00:00 18.4 4 Sudoeste 17 Oeste 0 -- -- 56
2019-10-21 14:00:00 16.7 5 Sudoeste 15 Oeste 0 -- -- 62
2019-10-21 13:00:00 13.6 5 Oeste 12 Noroeste 0 -- -- 76
2019-10-21 12:00:00 11.6 4 Noroeste 8 Oeste 0 -- -- 84
2019-10-21 11:00:00 10.9 3 Norte 11 Noroeste 0 -- -- 86
2019-10-21 10:00:00 10.1 8 Norte 13 Norte 0 -- -- 88
2019-10-21 09:00:00 10 6 Norte 13 Norte 0 -- -- 88
2019-10-21 08:00:00 10.1 3 Sudeste 10 Norte 0 -- -- 87
2019-10-21 07:00:00 10.1 3 Este 12 Sudeste 0 -- -- 88
2019-10-21 06:00:00 9.8 2 Oeste 9 Este 0 -- -- 90
2019-10-21 05:00:00 9.4 0 Calma 11 Noroeste 0 -- -- 91
2019-10-21 04:00:00 9.9 2 Sudeste 8 Noroeste 0 -- -- 88
2019-10-21 03:00:00 10.3 2 Sur 9 Oeste 0 -- -- 86
2019-10-21 02:00:00 11.5 3 Noroeste 9 Este 0 -- -- 80
2019-10-21 01:00:00 12.3 4 Este 10 Sudeste 0 -- -- 77
2019-10-21 00:00:00 12.3 4 Este 15 Este 0 -- -- 79
2019-10-20 23:00:00 11.8 5 Este 14 Este 0 -- -- 85
2019-10-20 22:00:00 11.1 0 Calma 4 Sudeste 0 -- -- 90
2019-10-20 21:00:00 11.8 0 Calma 5 Nordeste 0 -- -- 86
2019-10-20 20:00:00 13.4 0 Calma 9 Nordeste 0 -- -- 81
2019-10-20 19:00:00 16.5 0 Calma 6 Noroeste 0 -- -- 76
2019-10-20 18:00:00 16.1 3 Noroeste 7 Norte 0 -- -- 73
2019-10-20 17:00:00 16.1 4 Sudoeste 16 Noroeste 0 -- -- 78
2019-10-20 16:00:00 16.3 3 Sudeste 7 Sudeste 0 -- -- 86
2019-10-20 15:00:00 16.2 0 Calma 13 Nordeste 0.2 -- -- 87
2019-10-20 14:00:00 15.5 4 Nordeste 22 Sudeste 1 -- -- 87
2019-10-20 13:00:00 16.2 4 Norte 12 Nordeste 0.8 -- -- 89
2019-10-20 12:00:00 16.7 3 Noroeste 10 Sudeste 1 -- -- 86
2019-10-20 11:00:00 17.5 4 Sudeste 9 Sudeste 1 -- -- 87
2019-10-20 10:00:00 17.9 3 Sudeste 14 Sudeste 0.2 -- -- 85
2019-10-20 09:00:00 19 8 Sudeste 19 Este 0.6 -- -- 78
2019-10-20 08:00:00 18.8 7 Sudeste 21 Sudeste 0 -- -- 82
2019-10-20 07:00:00 18.9 3 Sur 20 Sur 0 -- -- 83
2019-10-20 06:00:00 19 8 Sudeste 23 Sudeste 0 -- -- 82
2019-10-20 05:00:00 18.9 7 Sudeste 25 Sudeste 0 -- -- 82
2019-10-20 04:00:00 18.6 8 Sudoeste 23 Este 0 -- -- 83
2019-10-20 03:00:00 18.5 7 Sur 19 Sur 0 -- -- 81
2019-10-20 02:00:00 18.5 4 Sur 19 Este 0 -- -- 80
2019-10-20 01:00:00 18.6 6 Sudeste 17 Este 0 -- -- 79
2019-10-20 00:00:00 18.6 5 Oeste 22 Sudeste 0 -- -- 78
2019-10-19 23:00:00 19.1 9 Sudeste 23 Este 0 -- -- 75
2019-10-19 22:00:00 19.4 6 Sudoeste 21 Este 0 -- -- 75
2019-10-19 21:00:00 19.7 9 Sudeste 19 Este 0 -- -- 74
2019-10-19 20:00:00 20.3 7 Sudoeste 22 Sur 0 -- -- 71
2019-10-19 19:00:00 22.4 5 Sudoeste 24 Sudeste 0 -- -- 57
2019-10-19 18:00:00 24.2 9 Oeste 26 Noroeste 0 -- -- 51
2019-10-19 17:00:00 25.1 6 Oeste 26 Sudoeste 0 -- -- 47
2019-10-19 16:00:00 25.5 5 Sudoeste 19 Oeste 0 -- -- 42
2019-10-19 15:00:00 25.9 6 Oeste 12 Sudoeste 0 -- -- 42
2019-10-19 14:00:00 25 7 Noroeste 18 Noroeste 0 -- -- 44
2019-10-19 13:00:00 24.1 4 Sur 11 Sudoeste 0 -- -- 49
2019-10-19 12:00:00 22.3 4 Oeste 10 Sudoeste 0 -- -- 61
2019-10-19 11:00:00 19.1 5 Sudeste 10 Sur 0 -- -- 68
2019-10-19 10:00:00 13.8 0 Calma 8 Este 0 -- -- 86
2019-10-19 09:00:00 13.3 0 Calma 7 Este 0 -- -- 89
2019-10-19 08:00:00 13 3 Norte 10 Este 0 -- -- 88
2019-10-19 07:00:00 13.1 0 Calma 4 Sudeste 0 -- -- 87
2019-10-19 06:00:00 13.9 2 Sudeste 5 Sudeste 0 -- -- 86
2019-10-19 05:00:00 14.7 0 Calma 5 Sur 0 -- -- 82
2019-10-19 04:00:00 15.7 2 Noroeste 6 Sudeste 0 -- -- 77
2019-10-19 03:00:00 16.6 2 Nordeste 5 Sudoeste 0 -- -- 71
2019-10-19 02:00:00 18.5 3 Norte 17 Sudeste 0 -- -- 65
2019-10-19 01:00:00 19.9 10 Sudeste 19 Sudeste 0 -- -- 58
2019-10-19 00:00:00 20.3 7 Sudeste 17 Este 0 -- -- 56
2019-10-18 23:00:00 20.2 4 Noroeste 14 Nordeste 0 -- -- 58
2019-10-18 22:00:00 19.3 3 Norte 14 Sudeste 0 -- -- 63
2019-10-18 21:00:00 18.1 3 Sur 7 Sudeste 0 -- -- 68
2019-10-18 20:00:00 20.2 3 Sudeste 6 Sudeste 0 -- -- 62
2019-10-18 19:00:00 23 2 Norte 7 Norte 0 -- -- 54
2019-10-18 18:00:00 25.2 4 Norte 11 Sur 0 -- -- 48
2019-10-18 17:00:00 24.9 3 Sudoeste 13 Este 0 -- -- 49
2019-10-18 16:00:00 24.6 5 Nordeste 18 Nordeste 0 -- -- 51
2019-10-18 15:00:00 24.8 6 Sur 22 Sur 0 -- -- 51
2019-10-18 14:00:00 24 8 Sudoeste 22 Sudoeste 0 -- -- 53
2019-10-18 13:00:00 23.4 8 Oeste 23 Oeste 0 -- -- 54
2019-10-18 12:00:00 21.4 4 Nordeste 9 Nordeste 0 -- -- 60
2019-10-18 11:00:00 18.5 0 Calma 7 Sudoeste 0 -- -- 69
2019-10-18 10:00:00 15.5 0 Calma 9 Sudeste 0 -- -- 76
2019-10-18 09:00:00 13.6 4 Este 13 Sudoeste 0 -- -- 82
2019-10-18 08:00:00 12.9 0 Calma 8 Este 0 -- -- 80
2019-10-18 07:00:00 12 0 Calma 5 Sudeste 0 -- -- 81
2019-10-18 06:00:00 13.6 2 Norte 9 Este 0 -- -- 78
2019-10-18 05:00:00 11.7 2 Norte 6 Sudeste 0 -- -- 81
2019-10-18 04:00:00 12.4 2 Sur 5 Sur 0 -- -- 78
2019-10-18 03:00:00 12.2 0 Calma 6 Sudeste 0 -- -- 78
2019-10-18 02:00:00 12.5 0 Calma 2 Sudeste 0 -- -- 76
2019-10-18 01:00:00 13.2 0 Calma 4 Sur 0 -- -- 73
2019-10-18 00:00:00 13.9 0 Calma 5 Sudeste 0 -- -- 70